Time;durP1;ratioP1;P1;durP2;ratioP2;P2;SDS_P1;SDS_P2;PMS_P1;PMS_P2;Temp;Humidity;BMP_temperature;BMP_pressure;BME280_temperature;BME280_humidity;BME280_pressure;Samples;Min_cycle;Max_cycle;Signal;HPM_P1;HPM_P2
2023/08/29 00:00:50;;;;;;;3.63;2.55;;;;;;;12.26;100.00;95267.97;4978224;28;24447;-79
2023/08/29 00:03:16;;;;;;;3.40;2.50;;;;;;;12.33;100.00;95271.75;4993206;28;24429;-79
2023/08/29 00:05:42;;;;;;;4.10;2.63;;;;;;;12.50;100.00;95273.88;4993793;28;24999;-80
2023/08/29 00:08:09;;;;;;;2.97;2.20;;;;;;;12.51;100.00;95272.91;4993792;28;24447;-79
2023/08/29 00:10:37;;;;;;;2.80;2.50;;;;;;;12.48;100.00;95272.34;4993815;28;24432;-80
2023/08/29 00:13:04;;;;;;;4.87;2.47;;;;;;;12.49;100.00;95271.38;4994030;28;24457;-82
2023/08/29 00:15:30;;;;;;;5.15;3.15;;;;;;;12.46;100.00;95269.00;4988293;28;24445;-81
2023/08/29 00:17:57;;;;;;;4.13;2.97;;;;;;;12.43;100.00;95264.91;4976056;28;24421;-80
2023/08/29 00:20:23;;;;;;;2.67;2.47;;;;;;;12.52;100.00;95273.75;4990280;28;24448;-79
2023/08/29 00:22:50;;;;;;;4.70;3.00;;;;;;;12.47;100.00;95268.91;4990876;28;24427;-80
2023/08/29 00:25:16;;;;;;;3.33;2.70;;;;;;;12.47;100.00;95270.69;4974875;28;24781;-79
2023/08/29 00:27:44;;;;;;;3.95;2.90;;;;;;;12.41;100.00;95263.38;4973961;28;24421;-79
2023/08/29 00:30:12;;;;;;;4.25;2.90;;;;;;;12.29;100.00;95252.16;4973560;28;24949;-80
2023/08/29 00:32:39;;;;;;;4.60;2.70;;;;;;;12.22;100.00;95254.41;4973402;28;24453;-80
2023/08/29 00:35:06;;;;;;;3.85;2.85;;;;;;;12.21;100.00;95252.75;4980637;28;24971;-80
2023/08/29 00:37:33;;;;;;;3.33;2.55;;;;;;;12.27;100.00;95249.69;4994399;28;24417;-80
2023/08/29 00:39:59;;;;;;;3.20;2.60;;;;;;;12.29;100.00;95262.56;4993791;28;24444;-80
2023/08/29 00:42:26;;;;;;;3.67;2.67;;;;;;;12.24;100.00;95267.28;4993341;28;24428;-80
2023/08/29 00:44:54;;;;;;;3.75;2.88;;;;;;;12.29;100.00;95267.75;4989039;28;24492;-79
2023/08/29 00:47:20;;;;;;;6.82;2.90;;;;;;;12.34;100.00;95276.81;4973390;28;24972;-79
2023/08/29 00:49:47;;;;;;;4.15;3.15;;;;;;;12.37;100.00;95267.97;4973996;28;24805;-80
2023/08/29 00:52:14;;;;;;;5.40;2.50;;;;;;;12.41;100.00;95273.75;4980375;28;24782;-80
2023/08/29 00:54:41;;;;;;;4.03;2.93;;;;;;;12.37;100.00;95275.75;4973964;28;24468;-80
2023/08/29 00:57:08;;;;;;;2.70;2.42;;;;;;;12.46;100.00;95276.81;4973254;28;25098;-79
2023/08/29 00:59:35;;;;;;;3.53;2.40;;;;;;;12.48;100.00;95272.34;4982659;28;24444;-80
2023/08/29 01:02:04;;;;;;;6.47;2.47;;;;;;;12.48;100.00;95267.13;4993430;28;24468;-80
2023/08/29 01:04:30;;;;;;;3.72;2.38;;;;;;;12.51;100.00;95272.91;4992537;28;24461;-79
2023/08/29 01:06:57;;;;;;;5.47;2.70;;;;;;;12.54;100.00;95277.88;4992665;28;24429;-80
2023/08/29 01:09:25;;;;;;;5.53;2.70;;;;;;;12.64;100.00;95272.75;4992487;28;24821;-79
2023/08/29 01:12:00;;;;;;;5.47;2.60;;;;;;;12.62;100.00;95272.06;4992695;28;24437;-79
2023/08/29 01:14:34;;;;;;;3.53;2.53;;;;;;;12.59;100.00;95277.50;4996599;28;24547;-81
2023/08/29 01:17:08;;;;;;;9.52;2.80;;;;;;;12.53;100.00;95275.38;4979502;28;24506;-81
2023/08/29 01:19:40;;;;;;;4.00;2.20;;;;;;;12.52;100.00;95282.34;4986334;28;25002;-81
2023/08/29 01:22:22;;;;;;;3.05;2.28;;;;;;;12.51;100.00;95278.13;5000743;28;24984;-82
2023/08/29 01:24:57;;;;;;;2.85;2.10;;;;;;;12.50;100.00;95279.06;4975806;28;24442;-80
2023/08/29 01:27:26;;;;;;;5.00;2.70;;;;;;;12.40;100.00;95279.91;4982996;28;24440;-80
2023/08/29 01:29:53;;;;;;;3.53;2.42;;;;;;;12.43;100.00;95277.88;4992238;28;24428;-80
2023/08/29 01:32:20;;;;;;;3.28;2.30;;;;;;;12.43;100.00;95271.88;4991870;28;24975;-80
2023/08/29 01:34:47;;;;;;;4.95;2.80;;;;;;;12.39;100.00;95279.06;4993894;28;24456;-81
2023/08/29 01:37:13;;;;;;;4.53;2.67;;;;;;;12.37;100.00;95269.75;4994212;28;24431;-80
2023/08/29 01:39:40;;;;;;;5.00;2.88;;;;;;;12.28;100.00;95277.31;4983312;28;24537;-79
2023/08/29 01:42:07;;;;;;;4.63;2.80;;;;;;;12.22;100.00;95274.34;4972288;28;24437;-79
2023/08/29 01:44:34;;;;;;;3.55;2.63;;;;;;;12.19;100.00;95274.59;4975623;28;24456;-80
2023/08/29 01:47:01;;;;;;;3.60;2.85;;;;;;;12.20;100.00;95281.41;4984495;28;24452;-80
2023/08/29 01:49:28;;;;;;;3.67;2.72;;;;;;;12.18;100.00;95280.72;4972210;28;24847;-80
2023/08/29 01:51:55;;;;;;;6.13;2.70;;;;;;;12.22;100.00;95269.16;4972436;28;24425;-79
2023/08/29 01:54:21;;;;;;;4.32;3.03;;;;;;;12.23;100.00;95276.00;4990722;28;24475;-80
2023/08/29 01:56:50;;;;;;;4.18;3.03;;;;;;;12.22;100.00;95274.34;4991994;28;24429;-79
2023/08/29 01:59:16;;;;;;;3.28;2.85;;;;;;;12.16;100.00;95272.22;4986831;28;24447;-81
2023/08/29 02:01:45;;;;;;;4.72;3.05;;;;;;;12.20;100.00;95279.69;4975131;28;24453;-79
2023/08/29 02:04:11;;;;;;;4.53;2.95;;;;;;;12.20;100.00;95282.28;4991416;28;24447;-79
2023/08/29 02:06:38;;;;;;;6.18;3.03;;;;;;;12.16;100.00;95272.22;4991697;28;24431;-80
2023/08/29 02:09:05;;;;;;;5.47;2.83;;;;;;;12.11;100.00;95270.81;4991558;28;24421;-79
2023/08/29 02:11:31;;;;;;;3.85;2.90;;;;;;;12.12;100.00;95269.03;4991744;28;24425;-79
2023/08/29 02:13:58;;;;;;;3.28;2.97;;;;;;;12.03;100.00;95265.38;4983029;28;24472;-81
2023/08/29 02:16:25;;;;;;;3.67;2.53;;;;;;;12.10;100.00;95263.97;4987706;28;24426;-80
2023/08/29 02:18:53;;;;;;;3.35;2.50;;;;;;;12.13;100.00;95262.09;4973999;28;24834;-80
2023/08/29 02:21:19;;;;;;;3.88;2.70;;;;;;;12.06;100.00;95256.53;4972047;28;24432;-79
2023/08/29 02:23:46;;;;;;;3.85;2.83;;;;;;;12.00;100.00;95254.41;4971777;28;24429;-79
2023/08/29 02:26:13;;;;;;;5.17;2.50;;;;;;;11.99;100.00;95250.16;4972076;28;24445;-79
2023/08/29 02:28:39;;;;;;;4.18;2.63;;;;;;;11.97;100.00;95245.09;4978138;28;24445;-79
2023/08/29 02:31:07;;;;;;;5.18;2.53;;;;;;;12.00;100.00;95239.66;4991190;28;24417;-80
2023/08/29 02:33:35;;;;;;;4.67;2.60;;;;;;;11.90;100.00;95245.66;4977550;28;24501;-80
2023/08/29 02:36:04;;;;;;;3.03;2.33;;;;;;;11.94;100.00;95247.09;4972201;28;24428;-79
2023/08/29 02:38:31;;;;;;;5.25;2.55;;;;;;;11.94;100.00;95247.09;4973005;28;24499;-79
2023/08/29 02:40:58;;;;;;;3.10;2.80;;;;;;;11.97;100.00;95237.28;4976253;28;24433;-80
2023/08/29 02:43:25;;;;;;;4.38;2.70;;;;;;;12.04;100.00;95233.28;4987880;28;24440;-79
2023/08/29 02:45:51;;;;;;;3.90;2.50;;;;;;;12.07;100.00;95233.06;4994948;28;24437;-79
2023/08/29 02:48:18;;;;;;;2.80;2.53;;;;;;;12.11;100.00;95244.84;4975667;28;24529;-79
2023/08/29 02:50:48;;;;;;;3.35;2.70;;;;;;;12.13;100.00;95241.34;4981954;28;24444;-79
2023/08/29 02:53:16;;;;;;;3.25;2.80;;;;;;;12.18;100.00;95241.78;4994020;28;24452;-79
2023/08/29 02:55:43;;;;;;;3.63;2.80;;;;;;;12.22;100.00;95238.00;4995773;28;24504;-79
2023/08/29 02:58:09;;;;;;;8.27;3.00;;;;;;;12.29;100.00;95241.78;4981404;28;24438;-81
2023/08/29 03:00:36;;;;;;;4.15;3.33;;;;;;;12.23;100.00;95237.88;4999125;28;24428;-79
2023/08/29 03:03:03;;;;;;;7.18;3.50;;;;;;;12.20;100.00;95235.53;4994597;28;24470;-79
2023/08/29 03:05:29;;;;;;;4.70;3.42;;;;;;;12.19;100.00;95236.47;4994029;28;24536;-80
2023/08/29 03:07:57;;;;;;;3.60;3.13;;;;;;;12.17;100.00;95232.34;4994989;28;24428;-79
2023/08/29 03:10:25;;;;;;;12.27;3.17;;;;;;;12.29;100.00;95231.41;4975286;28;24870;-79
2023/08/29 03:12:51;;;;;;;3.13;2.80;;;;;;;12.38;100.00;95235.84;4974653;28;25007;-79
2023/08/29 03:15:18;;;;;;;4.28;3.67;;;;;;;12.31;100.00;95239.88;4986081;28;24463;-81
2023/08/29 03:17:45;;;;;;;4.38;3.45;;;;;;;12.38;100.00;95235.03;4982046;28;24433;-80
2023/08/29 03:20:12;;;;;;;4.13;3.60;;;;;;;12.47;100.00;95234.31;4992237;28;24452;-79
2023/08/29 03:22:39;;;;;;;4.80;3.80;;;;;;;12.40;100.00;95231.38;4993995;28;24958;-80
2023/08/29 03:25:06;;;;;;;10.18;4.68;;;;;;;12.24;100.00;95225.75;4994591;28;24428;-79
2023/08/29 03:27:34;;;;;;;5.63;4.13;;;;;;;12.14;100.00;95228.22;4997917;28;24429;-80
2023/08/29 03:30:00;;;;;;;6.95;4.50;;;;;;;12.11;100.00;95221.50;4991727;28;24421;-78
2023/08/29 03:32:27;;;;;;;9.48;4.03;;;;;;;12.13;100.00;95223.97;4980706;28;24459;-80
2023/08/29 03:34:54;;;;;;;6.78;4.50;;;;;;;12.12;100.00;95219.72;5046988;23;24472;-74
2023/08/29 03:37:20;;;;;;;5.22;3.83;;;;;;;12.21;100.00;95226.81;5008237;28;24436;-75
2023/08/29 03:39:47;;;;;;;7.53;4.80;;;;;;;12.11;100.00;95226.69;5011990;28;24998;-74
2023/08/29 03:42:13;;;;;;;6.00;4.65;;;;;;;12.13;100.00;95216.19;5012358;28;24432;-74
2023/08/29 03:44:41;;;;;;;5.27;4.20;;;;;;;12.11;100.00;95213.69;4996914;28;24441;-75
2023/08/29 03:47:08;;;;;;;6.35;4.45;;;;;;;12.06;100.00;95212.41;5000455;28;24992;-74
2023/08/29 03:49:34;;;;;;;5.38;4.80;;;;;;;12.08;100.00;95218.31;4992544;28;24991;-74
2023/08/29 03:52:01;;;;;;;5.47;4.97;;;;;;;12.17;100.00;95219.38;4978261;28;24433;-74
2023/08/29 03:54:27;;;;;;;7.10;5.38;;;;;;;12.29;100.00;95221.00;4992041;28;24477;-74
2023/08/29 03:56:54;;;;;;;5.60;5.10;;;;;;;12.33;100.00;95219.81;4993785;28;24441;-74
2023/08/29 03:59:20;;;;;;;6.20;5.07;;;;;;;12.40;100.00;95226.19;4973697;28;24445;-75
2023/08/29 04:01:48;;;;;;;4.97;4.47;;;;;;;12.44;100.00;95221.56;4981913;28;25143;-74
2023/08/29 04:04:14;;;;;;;6.72;4.32;;;;;;;12.46;100.00;95217.06;5000264;28;24437;-75
2023/08/29 04:06:41;;;;;;;5.00;4.47;;;;;;;12.44;100.00;95212.00;5004783;28;24441;-74
2023/08/29 04:09:08;;;;;;;6.05;4.85;;;;;;;12.50;100.00;95216.72;4979483;28;24441;-74
2023/08/29 04:11:35;;;;;;;5.93;4.95;;;;;;;12.53;100.00;95213.03;4984579;28;24465;-74
2023/08/29 04:14:02;;;;;;;5.75;4.95;;;;;;;12.49;100.00;95219.44;4973503;28;24484;-73
2023/08/29 04:16:28;;;;;;;5.88;5.28;;;;;;;12.44;100.00;95211.19;4989405;28;24437;-74
2023/08/29 04:18:56;;;;;;;5.28;4.55;;;;;;;12.48;100.00;95212.59;4990585;28;24444;-75
2023/08/29 04:21:22;;;;;;;4.72;4.32;;;;;;;12.50;100.00;95211.53;4981071;28;24440;-73
2023/08/29 04:23:49;;;;;;;4.82;4.18;;;;;;;12.54;100.00;95219.91;4984440;28;24441;-74
2023/08/29 04:26:16;;;;;;;10.10;4.40;;;;;;;12.48;100.00;95216.00;4985070;28;24511;-73
2023/08/29 04:28:42;;;;;;;5.50;4.50;;;;;;;12.48;100.00;95216.00;4971827;28;24441;-74
2023/08/29 04:31:09;;;;;;;4.73;4.33;;;;;;;12.29;100.00;95210.63;4991600;28;24436;-74
2023/08/29 04:33:36;;;;;;;5.53;5.03;;;;;;;12.25;100.00;95210.03;4971936;28;24425;-73
2023/08/29 04:36:04;;;;;;;9.40;4.87;;;;;;;12.24;100.00;95216.19;4983538;28;24476;-74
2023/08/29 04:38:32;;;;;;;5.32;4.65;;;;;;;12.20;100.00;95214.78;4985863;28;24456;-74
2023/08/29 04:40:58;;;;;;;5.38;4.43;;;;;;;12.31;100.00;95208.72;4988162;28;24491;-75
2023/08/29 04:43:25;;;;;;;5.45;4.75;;;;;;;12.39;100.00;95206.38;4985625;28;24452;-75
2023/08/29 04:45:52;;;;;;;7.20;4.50;;;;;;;12.44;100.00;95216.38;4987693;28;24445;-75
2023/08/29 04:48:19;;;;;;;5.35;4.80;;;;;;;12.38;100.00;95214.25;4997880;28;25015;-76
2023/08/29 04:50:45;;;;;;;5.90;5.37;;;;;;;12.42;100.00;95220.84;4992795;28;24440;-75
2023/08/29 04:53:13;;;;;;;7.35;5.00;;;;;;;12.45;100.00;95216.25;4983072;28;24499;-75
2023/08/29 04:55:40;;;;;;;7.67;4.83;;;;;;;12.50;100.00;95208.13;4977058;28;24460;-75
2023/08/29 04:58:06;;;;;;;10.50;5.63;;;;;;;12.31;100.00;95213.91;4976139;28;24452;-75
2023/08/29 05:00:33;;;;;;;6.10;5.28;;;;;;;12.28;100.00;95208.97;4992127;28;24441;-75
2023/08/29 05:02:59;;;;;;;5.00;4.60;;;;;;;12.32;100.00;95210.38;4996214;28;24792;-75
2023/08/29 05:05:26;;;;;;;5.45;4.38;;;;;;;12.34;100.00;95211.06;4998110;28;24444;-75
2023/08/29 05:07:52;;;;;;;5.07;4.63;;;;;;;12.42;100.00;95203.53;4990396;28;24437;-75
2023/08/29 05:10:20;;;;;;;6.18;4.65;;;;;;;12.42;100.00;95200.94;4989434;28;24439;-73
2023/08/29 05:12:46;;;;;;;5.32;4.82;;;;;;;12.39;100.00;95202.94;4971751;28;24437;-75
2023/08/29 05:15:13;;;;;;;5.85;4.45;;;;;;;12.39;100.00;95211.56;4979296;28;24449;-73
2023/08/29 05:17:39;;;;;;;9.05;5.25;;;;;;;12.24;100.00;95212.75;4985089;28;24777;-75
2023/08/29 05:20:09;;;;;;;9.57;5.57;;;;;;;12.14;100.00;95202.25;4985994;28;24437;-75
2023/08/29 05:22:37;;;;;;;7.45;5.18;;;;;;;12.24;100.00;95203.19;4974341;28;24444;-76
2023/08/29 05:25:05;;;;;;;7.38;5.05;;;;;;;12.27;100.00;95213.34;4981684;28;25015;-75
2023/08/29 05:27:33;;;;;;;6.07;5.05;;;;;;;12.33;100.00;95212.84;4970065;28;24432;-75
2023/08/29 05:30:00;;;;;;;5.65;4.95;;;;;;;12.40;100.00;95204.59;4969650;28;24864;-76
2023/08/29 05:32:26;;;;;;;5.43;4.80;;;;;;;12.45;100.00;95216.25;4969529;28;24432;-76
2023/08/29 05:34:53;;;;;;;6.20;5.28;;;;;;;12.32;100.00;95216.41;4969804;28;24460;-77
2023/08/29 05:37:19;;;;;;;6.50;5.65;;;;;;;12.32;100.00;95210.38;4971938;28;24419;-70
2023/08/29 05:39:45;;;;;;;5.88;5.32;;;;;;;12.28;100.00;95217.59;4971323;28;24417;-75
2023/08/29 05:42:12;;;;;;;6.50;5.03;;;;;;;12.39;100.00;95211.56;4979042;28;24436;-75
2023/08/29 05:44:40;;;;;;;6.53;5.63;;;;;;;12.35;100.00;95215.34;4986555;28;24519;-75
2023/08/29 05:47:06;;;;;;;9.00;6.43;;;;;;;12.27;100.00;95217.69;4982528;28;24960;-75
2023/08/29 05:49:34;;;;;;;6.03;5.43;;;;;;;12.34;100.00;95211.91;4990528;28;24432;-75
2023/08/29 05:52:00;;;;;;;6.20;5.60;;;;;;;12.43;100.00;95219.94;4981905;28;24991;-75
2023/08/29 05:54:27;;;;;;;8.30;5.55;;;;;;;12.48;100.00;95216.00;4976729;28;24491;-75
2023/08/29 05:56:55;;;;;;;5.70;5.10;;;;;;;12.45;100.00;95225.81;4981221;28;24444;-83
2023/08/29 05:59:21;;;;;;;7.53;5.70;;;;;;;12.45;100.00;95218.84;4980261;28;24436;-77
2023/08/29 06:01:49;;;;;;;6.88;6.03;;;;;;;12.45;100.00;95216.25;4985906;28;24433;-75
2023/08/29 06:04:15;;;;;;;6.40;5.80;;;;;;;12.53;100.00;95215.63;4971082;28;25267;-76
2023/08/29 06:06:43;;;;;;;6.95;5.75;;;;;;;12.65;100.00;95216.47;4986481;28;24437;-76
2023/08/29 06:09:10;;;;;;;6.03;5.43;;;;;;;12.74;100.00;95220.91;4988301;28;24465;-73
2023/08/29 06:11:37;;;;;;;7.57;5.45;;;;;;;12.85;100.00;95226.06;4989572;28;24441;-74
2023/08/29 06:14:03;;;;;;;8.02;5.00;;;;;;;12.94;100.00;95220.16;4988283;28;24521;-75
2023/08/29 06:16:30;;;;;;;5.43;4.57;;;;;;;13.02;100.00;95224.72;4989258;28;24448;-75
2023/08/29 06:18:58;;;;;;;5.60;5.00;;;;;;;13.10;100.00;95224.91;4974256;28;24437;-74
2023/08/29 06:21:25;;;;;;;6.35;5.20;;;;;;;13.18;100.00;95229.50;4974647;28;24430;-75
2023/08/29 06:23:51;;;;;;;5.10;4.60;;;;;;;13.26;100.00;95224.50;4986581;28;24801;-75
2023/08/29 06:26:18;;;;;;;6.60;5.95;;;;;;;13.15;100.00;95230.56;4973441;28;24433;-76
2023/08/29 06:28:44;;;;;;;6.95;5.10;;;;;;;13.16;100.00;95231.38;4991286;28;24804;-75
2023/08/29 06:31:11;;;;;;;5.70;4.95;;;;;;;13.08;100.00;95232.81;4997906;28;24443;-73
2023/08/29 06:33:39;;;;;;;5.90;5.10;;;;;;;12.88;100.00;95238.00;4996793;28;24980;-75
2023/08/29 06:36:07;;;;;;;5.70;4.82;;;;;;;12.81;100.00;95240.25;4995350;28;24452;-74
2023/08/29 06:38:34;;;;;;;9.30;5.72;;;;;;;12.77;100.00;95242.28;5000986;28;24433;-78
2023/08/29 06:41:01;;;;;;;6.22;5.40;;;;;;;12.67;100.00;95248.31;5001283;28;24468;-78
2023/08/29 06:43:27;;;;;;;6.75;5.03;;;;;;;12.62;100.00;95246.09;4994137;28;24427;-77
2023/08/29 06:45:54;;;;;;;6.75;5.15;;;;;;;12.62;100.00;95248.69;4993243;28;24975;-77
2023/08/29 06:48:20;;;;;;;8.80;5.50;;;;;;;12.64;100.00;95257.19;4992916;28;24417;-79
2023/08/29 06:50:47;;;;;;;6.47;4.90;;;;;;;12.56;100.00;95249.16;4993295;28;24423;-79
2023/08/29 06:53:15;;;;;;;7.45;4.88;;;;;;;12.52;100.00;95256.38;5004023;28;24433;-77
2023/08/29 06:55:41;;;;;;;6.20;5.25;;;;;;;12.45;100.00;95247.41;5007033;28;24452;-77
2023/08/29 06:58:08;;;;;;;7.72;5.38;;;;;;;12.37;100.00;95251.56;5014467;28;25000;-76
2023/08/29 07:00:35;;;;;;;5.97;5.10;;;;;;;12.42;100.00;95250.28;5013617;28;24416;-77
2023/08/29 07:03:02;;;;;;;6.00;5.20;;;;;;;12.35;100.00;95252.53;5013721;28;24428;-77
2023/08/29 07:05:29;;;;;;;7.38;5.22;;;;;;;12.33;100.00;95254.41;5014158;28;24435;-77
2023/08/29 07:07:56;;;;;;;6.28;5.13;;;;;;;12.35;100.00;95254.28;5014244;28;24436;-77
2023/08/29 07:10:24;;;;;;;10.63;5.78;;;;;;;12.32;100.00;95257.13;5013897;28;24435;-77
2023/08/29 07:12:50;;;;;;;7.28;5.45;;;;;;;12.30;100.00;95259.00;5013230;28;24420;-76
2023/08/29 07:15:17;;;;;;;6.10;5.50;;;;;;;12.29;100.00;95268.56;5014782;28;24451;-77
2023/08/29 07:17:43;;;;;;;6.07;4.95;;;;;;;12.26;100.00;95261.00;5014422;28;24531;-77
2023/08/29 07:20:11;;;;;;;6.63;5.07;;;;;;;12.33;100.00;95267.38;5013982;28;24428;-77
2023/08/29 07:22:38;;;;;;;13.02;5.97;;;;;;;12.33;100.00;95272.56;5014775;28;24886;-77
2023/08/29 07:25:05;;;;;;;6.18;4.97;;;;;;;12.45;100.00;95272.56;5016211;28;24424;-76
2023/08/29 07:27:33;;;;;;;6.22;5.60;;;;;;;12.54;100.00;95277.06;5017625;28;24787;-77
2023/08/29 07:30:00;;;;;;;9.40;5.82;;;;;;;12.56;100.00;95272.53;5018783;28;24456;-77
2023/08/29 07:32:27;;;;;;;10.45;5.93;;;;;;;12.48;100.00;95277.53;5017977;28;24422;-77
2023/08/29 07:34:55;;;;;;;6.70;5.72;;;;;;;12.47;100.00;95271.50;5017351;28;24428;-75
2023/08/29 07:37:21;;;;;;;6.80;5.30;;;;;;;12.64;100.00;95271.94;5017934;28;24424;-77
2023/08/29 07:39:48;;;;;;;7.00;6.30;;;;;;;12.73;100.00;95281.63;5017890;28;24421;-77
2023/08/29 07:42:16;;;;;;;8.30;5.55;;;;;;;12.86;100.00;95287.47;5013564;28;24421;-75
2023/08/29 07:44:44;;;;;;;6.70;6.10;;;;;;;12.80;100.00;95286.22;5012731;28;24424;-75
2023/08/29 07:47:11;;;;;;;6.13;5.53;;;;;;;12.94;100.00;95281.69;5012987;28;24423;-75
2023/08/29 07:49:37;;;;;;;6.68;5.60;;;;;;;13.04;100.00;95282.59;5012853;28;24986;-75
2023/08/29 07:52:04;;;;;;;8.17;5.57;;;;;;;12.99;100.00;95280.38;5013176;28;24416;-75
2023/08/29 07:54:31;;;;;;;6.90;6.25;;;;;;;12.91;100.00;95290.56;5012696;28;24421;-75
2023/08/29 07:56:58;;;;;;;8.68;6.30;;;;;;;12.99;100.00;95287.34;5013025;28;24874;-75
2023/08/29 07:59:24;;;;;;;7.10;6.30;;;;;;;12.96;100.00;95300.59;5012845;28;24419;-75
2023/08/29 08:01:53;;;;;;;6.30;5.70;;;;;;;12.91;100.00;95292.34;5012697;28;24969;-75
2023/08/29 08:04:20;;;;;;;9.73;5.90;;;;;;;12.83;100.00;95298.16;5012500;28;24428;-75
2023/08/29 08:06:46;;;;;;;7.35;5.82;;;;;;;12.82;100.00;95301.66;5012564;28;24412;-75
2023/08/29 08:09:14;;;;;;;6.13;5.53;;;;;;;12.90;100.00;95301.06;5012587;28;24415;-75
2023/08/29 08:11:40;;;;;;;6.43;5.83;;;;;;;12.90;100.00;95304.47;5012519;28;24421;-75
2023/08/29 08:14:07;;;;;;;9.85;5.60;;;;;;;12.90;100.00;95301.06;5012099;28;24420;-75
2023/08/29 08:16:33;;;;;;;10.30;6.13;;;;;;;12.88;100.00;95310.78;5012251;28;24476;-75
2023/08/29 08:19:01;;;;;;;8.05;5.88;;;;;;;13.35;100.00;95300.94;5012328;28;24768;-75
2023/08/29 08:21:28;;;;;;;6.20;5.53;;;;;;;13.53;100.00;95309.84;5012461;28;24419;-75
2023/08/29 08:23:54;;;;;;;5.90;5.00;;;;;;;13.48;100.00;95317.22;5011828;28;24424;-75
2023/08/29 08:26:21;;;;;;;5.70;5.10;;;;;;;13.59;100.00;95316.34;5012331;28;24410;-75
2023/08/29 08:28:47;;;;;;;7.03;4.88;;;;;;;13.44;100.00;95315.81;5012279;28;24423;-75
2023/08/29 08:31:14;;;;;;;5.35;4.85;;;;;;;13.31;100.00;95324.63;5012143;28;24781;-75
2023/08/29 08:33:40;;;;;;;6.30;4.88;;;;;;;13.49;100.00;95319.69;5012057;28;24428;-75
2023/08/29 08:36:08;;;;;;;6.72;4.80;;;;;;;13.61;100.00;95323.09;5011088;28;24511;-75
2023/08/29 08:38:35;;;;;;;5.63;4.70;;;;;;;13.31;100.00;95326.38;5012173;28;24479;-75
2023/08/29 08:41:04;;;;;;;5.22;4.70;;;;;;;13.19;100.00;95324.75;5012052;28;24420;-75
2023/08/29 08:43:32;;;;;;;5.95;4.15;;;;;;;13.24;100.00;95325.25;5011562;28;24552;-75
2023/08/29 08:45:59;;;;;;;5.38;4.45;;;;;;;13.31;100.00;95324.63;5011983;28;24467;-75
2023/08/29 08:48:25;;;;;;;4.38;3.97;;;;;;;13.35;100.00;95321.75;5011882;28;24970;-76
2023/08/29 08:50:52;;;;;;;6.53;4.10;;;;;;;13.42;100.00;95328.97;5012300;28;24421;-74
2023/08/29 08:53:21;;;;;;;4.47;4.07;;;;;;;13.44;100.00;95329.66;5012088;28;24432;-74
2023/08/29 08:55:47;;;;;;;6.70;4.43;;;;;;;13.43;100.00;95332.38;5012232;28;24579;-75
2023/08/29 08:58:14;;;;;;;5.57;4.40;;;;;;;13.52;100.00;95326.44;5012219;28;24412;-75
2023/08/29 09:00:41;;;;;;;5.50;4.35;;;;;;;13.55;100.00;95321.78;5012126;28;24958;-74
2023/08/29 09:03:07;;;;;;;5.75;4.25;;;;;;;13.71;100.00;95331.75;5011793;28;24423;-77
2023/08/29 09:05:34;;;;;;;5.30;4.32;;;;;;;13.92;100.00;95334.38;5012059;28;24432;-75
2023/08/29 09:08:00;;;;;;;5.18;4.30;;;;;;;13.66;100.00;95336.53;5011555;28;24424;-74
2023/08/29 09:10:33;;;;;;;5.07;3.65;;;;;;;13.70;100.00;95331.91;5011584;28;24428;-75
2023/08/29 09:12:59;;;;;;;4.80;4.15;;;;;;;13.74;100.00;95330.69;5011310;28;25122;-74
2023/08/29 09:15:27;;;;;;;5.45;4.25;;;;;;;13.79;100.00;95337.19;5011707;28;24428;-75
2023/08/29 09:17:54;;;;;;;5.75;4.50;;;;;;;13.93;100.00;95336.03;5011745;28;24449;-74
2023/08/29 09:20:22;;;;;;;5.30;4.32;;;;;;;14.02;100.00;95337.88;5011672;28;24428;-74
2023/08/29 09:22:49;;;;;;;5.38;4.38;;;;;;;13.98;100.00;95338.28;5011520;28;24421;-75
2023/08/29 09:25:16;;;;;;;5.65;4.40;;;;;;;13.78;100.00;95340.72;5011406;28;24959;-77
2023/08/29 09:27:47;;;;;;;5.65;3.90;;;;;;;13.84;100.00;95339.41;5011716;28;24505;-74
2023/08/29 09:30:15;;;;;;;4.33;3.93;;;;;;;13.76;100.00;95337.44;5011396;28;24927;-74
2023/08/29 09:32:43;;;;;;;6.72;4.65;;;;;;;14.00;100.00;95342.38;5011695;28;24451;-74
2023/08/29 09:35:12;;;;;;;5.85;4.45;;;;;;;14.14;100.00;95343.03;5014246;28;24452;-78
2023/08/29 09:37:41;;;;;;;4.43;4.03;;;;;;;14.03;100.00;95336.09;5015021;28;24413;-76
2023/08/29 09:40:10;;;;;;;5.10;4.60;;;;;;;14.03;100.00;95334.31;5014854;28;24958;-77
2023/08/29 09:42:37;;;;;;;7.77;5.60;;;;;;;13.83;100.00;95331.72;5016304;28;24515;-77
2023/08/29 09:45:08;;;;;;;6.97;5.13;;;;;;;13.77;100.00;95333.06;5015039;28;24800;-77
2023/08/29 09:47:35;;;;;;;6.47;4.80;;;;;;;13.56;100.00;95333.03;5015238;28;24487;-77
2023/08/29 09:50:03;;;;;;;11.50;5.30;;;;;;;13.70;100.00;95337.94;5014737;28;24420;-77
2023/08/29 09:52:29;;;;;;;6.97;5.68;;;;;;;13.79;100.00;95339.78;5014586;28;25006;-76
2023/08/29 09:54:58;;;;;;;6.00;5.40;;;;;;;13.83;100.00;95334.31;5013984;28;24428;-77
2023/08/29 09:57:27;;;;;;;6.00;4.93;;;;;;;13.80;100.00;95336.22;5014784;28;25059;-77
2023/08/29 09:59:57;;;;;;;7.53;5.33;;;;;;;13.78;100.00;95339.91;5014534;28;24985;-77
2023/08/29 10:02:30;;;;;;;5.82;5.00;;;;;;;13.71;100.00;95336.16;5015193;28;24428;-77
2023/08/29 10:05:03;;;;;;;6.70;6.00;;;;;;;13.62;100.00;95337.75;5015310;28;24424;-77
2023/08/29 10:07:35;;;;;;;6.93;5.45;;;;;;;13.66;100.00;95336.53;5016349;28;24448;-77
2023/08/29 10:10:03;;;;;;;6.33;5.53;;;;;;;13.63;100.00;95341.16;5015865;28;24451;-77
2023/08/29 10:12:29;;;;;;;9.40;5.53;;;;;;;13.67;100.00;95345.16;5015234;28;24425;-76
2023/08/29 10:14:57;;;;;;;9.60;5.53;;;;;;;13.59;100.00;95343.19;5015471;28;24787;-77
2023/08/29 10:17:25;;;;;;;5.88;5.28;;;;;;;13.53;100.00;95344.53;5015026;28;24444;-78
2023/08/29 10:19:53;;;;;;;6.75;5.28;;;;;;;13.61;100.00;95340.44;5015002;28;24973;-76
2023/08/29 10:22:21;;;;;;;6.00;5.25;;;;;;;13.61;100.00;95336.09;5016831;28;24785;-77
2023/08/29 10:24:51;;;;;;;6.97;5.68;;;;;;;13.50;100.00;95342.16;5014919;28;24427;-76
2023/08/29 10:27:18;;;;;;;5.10;4.60;;;;;;;13.71;100.00;95339.56;5014585;28;24492;-76
2023/08/29 10:29:44;;;;;;;8.93;4.90;;;;;;;13.79;100.00;95345.00;5014631;28;24562;-77
2023/08/29 10:32:11;;;;;;;6.75;5.38;;;;;;;13.89;100.00;95344.22;5014050;28;24781;-77
2023/08/29 10:34:37;;;;;;;6.22;5.43;;;;;;;13.85;100.00;95348.84;5014458;28;24435;-77
2023/08/29 10:37:06;;;;;;;6.20;5.32;;;;;;;13.92;100.00;95337.00;5014279;28;24451;-77
2023/08/29 10:39:33;;;;;;;6.87;5.60;;;;;;;13.94;100.00;95344.66;5015375;28;24417;-77
2023/08/29 10:41:59;;;;;;;7.17;5.50;;;;;;;13.94;100.00;95342.91;5015830;28;24436;-77
2023/08/29 10:44:36;;;;;;;6.85;5.15;;;;;;;14.02;100.00;95348.31;5014735;28;24423;-77
2023/08/29 10:47:19;;;;;;;6.88;5.53;;;;;;;14.00;100.00;95339.78;5014732;28;24978;-77
2023/08/29 10:49:46;;;;;;;7.65;5.85;;;;;;;13.99;100.00;95338.13;5014612;28;24922;-77
2023/08/29 10:52:18;;;;;;;5.80;5.20;;;;;;;14.08;100.00;95333.94;5014188;28;24424;-77
2023/08/29 10:54:45;;;;;;;10.07;6.23;;;;;;;14.06;100.00;95325.44;5015765;28;24432;-77
2023/08/29 10:57:27;;;;;;;8.02;5.88;;;;;;;14.16;100.00;95318.47;5015847;28;24475;-77
2023/08/29 10:59:54;;;;;;;8.23;5.97;;;;;;;14.22;100.00;95324.97;5017778;28;24478;-77
2023/08/29 11:02:26;;;;;;;5.60;4.95;;;;;;;14.46;100.00;95329.88;5019735;28;24424;-75
2023/08/29 11:04:54;;;;;;;5.10;4.60;;;;;;;14.52;100.00;95322.38;5020035;28;24484;-77
2023/08/29 11:07:26;;;;;;;5.57;5.07;;;;;;;14.66;100.00;95323.00;5019768;28;24482;-77
2023/08/29 11:10:14;;;;;;;6.50;4.85;;;;;;;14.67;100.00;95322.84;5019634;28;24527;-77
2023/08/29 11:13:02;;;;;;;5.32;4.32;;;;;;;14.74;100.00;95318.75;5019737;28;24986;-77
2023/08/29 11:16:17;;;;;;;5.90;4.82;;;;;;;14.89;100.00;95318.38;5019379;28;24434;-77
2023/08/29 11:18:44;;;;;;;7.32;3.90;;;;;;;14.94;100.00;95322.25;5019228;28;24496;-77
2023/08/29 11:21:11;;;;;;;5.85;4.75;;;;;;;14.96;100.00;95311.69;5020258;28;24424;-78
2023/08/29 11:23:41;;;;;;;4.90;3.80;;;;;;;14.98;100.00;95315.81;5019225;28;24420;-77
2023/08/29 11:26:08;;;;;;;7.10;4.80;;;;;;;14.96;100.00;95319.50;5019511;28;24986;-76